createdAt,value
2019-01-26T00:00:43.249Z,22.50
2019-01-26T00:01:48.714Z,21.80
2019-01-26T00:02:54.226Z,23.00
2019-01-26T00:03:59.738Z,22.30
2019-01-26T00:05:05.249Z,27.10
2019-01-26T00:06:10.746Z,21.00
2019-01-26T00:07:16.243Z,20.70
2019-01-26T00:08:21.744Z,24.00
2019-01-26T00:09:27.263Z,23.10
2019-01-26T00:10:32.766Z,25.60
2019-01-26T00:11:38.270Z,24.60
2019-01-26T00:12:43.768Z,22.50
2019-01-26T00:13:49.277Z,23.40
2019-01-26T00:14:54.805Z,22.50
2019-01-26T00:16:00.294Z,25.60
2019-01-26T00:17:05.799Z,23.20
2019-01-26T00:18:11.298Z,25.00
2019-01-26T00:19:16.813Z,22.70
2019-01-26T00:20:22.860Z,24.20
2019-01-26T00:21:27.813Z,28.10
2019-01-26T00:22:33.315Z,25.50
2019-01-26T00:23:38.826Z,29.00
2019-01-26T00:24:44.331Z,27.40
2019-01-26T00:25:49.843Z,34.30
2019-01-26T00:26:55.360Z,35.90
2019-01-26T00:28:00.863Z,29.20
2019-01-26T00:29:06.357Z,36.60
2019-01-26T00:30:11.868Z,36.80
2019-01-26T00:31:17.367Z,36.40
2019-01-26T00:32:22.868Z,40.70
2019-01-26T00:33:28.382Z,42.30
2019-01-26T00:34:33.882Z,35.50
2019-01-26T00:35:39.386Z,41.10
2019-01-26T00:36:44.891Z,43.80
2019-01-26T00:37:50.394Z,35.40
2019-01-26T00:38:55.907Z,44.50
2019-01-26T00:40:01.461Z,44.90
2019-01-26T00:41:06.912Z,44.50
2019-01-26T00:42:12.415Z,39.10
2019-01-26T00:43:17.936Z,41.50
2019-01-26T00:44:23.428Z,42.40
2019-01-26T00:45:29.865Z,56.20
2019-01-26T00:46:34.438Z,43.30
2019-01-26T00:47:39.944Z,55.70
2019-01-26T00:48:45.447Z,44.70
2019-01-26T00:49:50.960Z,43.10
2019-01-26T00:50:56.463Z,44.40
2019-01-26T00:52:01.964Z,51.00
2019-01-26T00:53:07.480Z,44.10
2019-01-26T00:54:12.982Z,45.80
2019-01-26T00:55:18.491Z,41.40
2019-01-26T00:56:24.000Z,49.90
2019-01-26T00:57:29.506Z,43.10
2019-01-26T00:58:35.006Z,58.70
2019-01-26T00:59:40.505Z,47.00
2019-01-26T01:00:46.009Z,57.10
2019-01-26T01:01:51.516Z,61.60
2019-01-26T01:02:57.021Z,103.60
2019-01-26T01:04:02.526Z,83.10
2019-01-26T01:05:08.042Z,62.30
2019-01-26T01:06:13.538Z,64.60
2019-01-26T01:07:19.055Z,57.10
2019-01-26T01:08:24.555Z,53.30
2019-01-26T01:09:30.863Z,64.40
2019-01-26T01:10:35.572Z,78.40
2019-01-26T01:11:41.072Z,72.50
2019-01-26T01:12:46.577Z,52.90
2019-01-26T01:13:52.086Z,57.50
2019-01-26T01:14:57.588Z,61.80
2019-01-26T01:16:03.091Z,65.70
2019-01-26T01:17:08.604Z,58.60
2019-01-26T01:18:14.107Z,50.00
2019-01-26T01:19:20.356Z,58.80
2019-01-26T01:20:25.121Z,76.20
2019-01-26T01:21:30.629Z,51.60
2019-01-26T01:22:36.131Z,47.50
2019-01-26T01:23:41.753Z,49.70
2019-01-26T01:24:47.142Z,44.10
2019-01-26T01:25:52.647Z,51.90
2019-01-26T01:26:58.163Z,48.50
2019-01-26T01:28:03.669Z,44.20
2019-01-26T01:29:09.164Z,45.90
2019-01-26T01:30:14.669Z,46.70
2019-01-26T01:31:20.184Z,46.10
2019-01-26T01:32:26.373Z,53.80
2019-01-26T01:33:31.188Z,44.90
2019-01-26T01:34:36.702Z,49.40
2019-01-26T01:35:42.198Z,53.70
2019-01-26T01:36:47.732Z,55.70
2019-01-26T01:37:53.213Z,42.00
2019-01-26T01:38:58.720Z,39.30
2019-01-26T01:40:04.227Z,50.10
2019-01-26T01:41:09.744Z,39.10
2019-01-26T01:42:15.243Z,48.00
2019-01-26T01:43:20.742Z,42.30
2019-01-26T01:44:26.242Z,43.70
2019-01-26T01:45:31.762Z,41.30
2019-01-26T01:46:42.883Z,41.50
2019-01-26T01:47:42.819Z,47.30
2019-01-26T01:48:48.269Z,44.60
2019-01-26T01:49:53.776Z,42.30
2019-01-26T01:50:59.276Z,45.90
2019-01-26T01:52:04.793Z,43.20
2019-01-26T01:53:10.309Z,43.50
2019-01-26T01:54:15.798Z,49.50
2019-01-26T01:55:21.302Z,40.10
2019-01-26T01:56:26.819Z,40.60
2019-01-26T01:57:32.312Z,51.20
2019-01-26T01:58:37.821Z,52.30
2019-01-26T01:59:43.325Z,62.80
2019-01-26T02:00:48.831Z,50.90
2019-01-26T02:01:54.343Z,46.80
2019-01-26T02:02:59.841Z,47.80
2019-01-26T02:04:05.355Z,47.60
2019-01-26T02:05:10.860Z,48.30
2019-01-26T02:06:16.376Z,60.30
2019-01-26T02:07:21.869Z,62.40
2019-01-26T02:08:27.381Z,47.20
2019-01-26T02:09:32.892Z,61.70
2019-01-26T02:10:38.396Z,42.10
2019-01-26T02:11:43.910Z,45.50
2019-01-26T02:12:49.418Z,46.40
2019-01-26T02:13:54.923Z,70.40
2019-01-26T02:15:00.427Z,49.40
2019-01-26T02:16:05.915Z,46.80
2019-01-26T02:17:11.424Z,46.20
2019-01-26T02:18:16.954Z,47.80
2019-01-26T02:19:22.436Z,49.90
2019-01-26T02:20:27.977Z,50.40
2019-01-26T02:21:33.456Z,41.70
2019-01-26T02:22:38.960Z,55.10
2019-01-26T02:23:44.468Z,51.50
2019-01-26T02:24:49.981Z,60.10
2019-01-26T02:25:55.506Z,55.50
2019-01-26T02:27:00.982Z,55.10
2019-01-26T02:28:06.485Z,65.10
2019-01-26T02:29:12.001Z,81.10
2019-01-26T02:30:17.506Z,55.00
2019-01-26T02:31:23.016Z,55.00
2019-01-26T02:32:28.517Z,45.40
2019-01-26T02:33:34.020Z,101.80
2019-01-26T02:34:39.532Z,45.60
2019-01-26T02:35:45.031Z,46.00
2019-01-26T02:36:50.537Z,54.00
2019-01-26T02:37:56.050Z,46.90
2019-01-26T02:39:01.557Z,52.20
2019-01-26T02:40:07.066Z,44.40
2019-01-26T02:41:12.566Z,56.00
2019-01-26T02:42:18.072Z,51.60
2019-01-26T02:43:23.583Z,57.40
2019-01-26T02:44:30.874Z,56.40
2019-01-26T02:45:35.395Z,56.30
2019-01-26T02:46:40.106Z,65.70
2019-01-26T02:47:45.597Z,61.90
2019-01-26T02:48:51.109Z,59.70
2019-01-26T02:49:56.659Z,61.10
2019-01-26T02:51:02.119Z,59.30
2019-01-26T02:52:07.630Z,66.40
2019-01-26T02:53:13.134Z,81.30
2019-01-26T02:54:18.641Z,58.60
2019-01-26T02:55:24.164Z,67.50
2019-01-26T02:56:29.653Z,102.40
2019-01-26T02:57:35.158Z,68.60
2019-01-26T02:58:40.671Z,68.70
2019-01-26T02:59:46.174Z,61.50
2019-01-26T03:00:51.683Z,69.40
2019-01-26T03:01:57.193Z,94.60
2019-01-26T03:03:02.688Z,99.80
2019-01-26T03:04:08.205Z,76.80
2019-01-26T03:05:13.704Z,98.50
2019-01-26T03:06:19.217Z,84.00
2019-01-26T03:07:24.719Z,91.60
2019-01-26T03:08:30.225Z,98.60
2019-01-26T03:09:35.730Z,79.60
2019-01-26T03:10:41.243Z,153.50
2019-01-26T03:11:46.746Z,76.00
2019-01-26T03:12:52.253Z,94.40
2019-01-26T03:13:57.755Z,137.10
2019-01-26T03:15:03.265Z,79.20
2019-01-26T03:16:08.769Z,98.40
2019-01-26T03:17:14.277Z,71.00
2019-01-26T03:18:19.782Z,72.10
2019-01-26T03:19:25.301Z,70.70
2019-01-26T03:20:30.791Z,103.00
2019-01-26T03:21:36.309Z,100.70
2019-01-26T03:22:41.809Z,90.80
2019-01-26T03:23:47.326Z,121.80
2019-01-26T03:24:52.816Z,90.20
2019-01-26T03:25:58.330Z,110.30
2019-01-26T03:27:03.836Z,101.20
2019-01-26T03:28:09.355Z,112.60
2019-01-26T03:29:14.846Z,88.80
2019-01-26T03:30:20.357Z,85.00
2019-01-26T03:31:25.869Z,141.60
2019-01-26T03:32:31.377Z,91.10
2019-01-26T03:33:36.875Z,92.20
2019-01-26T03:34:42.383Z,109.60
2019-01-26T03:35:47.886Z,94.30
2019-01-26T03:36:53.393Z,110.20
2019-01-26T03:37:58.902Z,109.20
2019-01-26T03:39:04.408Z,166.00
2019-01-26T03:40:09.922Z,110.30
2019-01-26T03:41:15.421Z,94.50
2019-01-26T03:42:20.933Z,97.30
2019-01-26T03:43:26.432Z,101.80
2019-01-26T03:44:31.941Z,115.40
2019-01-26T03:45:37.454Z,173.40
2019-01-26T03:46:42.966Z,104.00
2019-01-26T03:47:48.476Z,96.60
2019-01-26T03:48:53.967Z,88.20
2019-01-26T03:49:59.475Z,117.90
2019-01-26T03:51:04.989Z,121.60
2019-01-26T03:52:10.490Z,79.30
2019-01-26T03:53:16.003Z,91.40
2019-01-26T03:54:21.514Z,82.10
2019-01-26T03:55:27.010Z,101.10
2019-01-26T03:56:32.523Z,107.40
2019-01-26T03:57:38.023Z,105.40
2019-01-26T03:58:43.524Z,105.20
2019-01-26T03:59:49.042Z,108.90
2019-01-26T04:00:54.540Z,114.60
2019-01-26T04:02:00.045Z,82.30
2019-01-26T04:03:05.550Z,173.40
2019-01-26T04:04:11.058Z,117.50
2019-01-26T04:05:16.567Z,88.20
2019-01-26T04:06:22.086Z,109.60
2019-01-26T04:07:27.583Z,91.50
2019-01-26T04:08:33.094Z,94.80
2019-01-26T04:09:38.601Z,125.10
2019-01-26T04:10:44.101Z,120.10
2019-01-26T04:11:49.605Z,108.00
2019-01-26T04:12:55.114Z,111.70
2019-01-26T04:14:00.614Z,83.40
2019-01-26T04:15:06.133Z,89.00
2019-01-26T04:16:11.628Z,142.40
2019-01-26T04:17:21.730Z,99.30
2019-01-26T04:18:22.652Z,206.40
2019-01-26T04:19:28.147Z,138.00
2019-01-26T04:20:33.665Z,158.70
2019-01-26T04:21:39.169Z,177.80
2019-01-26T04:22:44.678Z,166.50
2019-01-26T04:23:50.178Z,110.40
2019-01-26T04:24:55.693Z,111.20
2019-01-26T04:26:01.187Z,96.30
2019-01-26T04:27:06.697Z,147.00
2019-01-26T04:28:12.200Z,117.70
2019-01-26T04:29:17.718Z,108.40
2019-01-26T04:30:23.218Z,108.90
2019-01-26T04:31:28.725Z,127.20
2019-01-26T04:32:34.239Z,117.50
2019-01-26T04:33:39.748Z,113.40
2019-01-26T04:34:45.247Z,112.20
2019-01-26T04:35:50.753Z,139.20
2019-01-26T04:36:56.261Z,127.20
2019-01-26T04:38:01.774Z,99.30
2019-01-26T04:39:07.273Z,120.50
2019-01-26T04:40:12.791Z,139.90
2019-01-26T04:41:18.295Z,134.90
2019-01-26T04:42:23.799Z,117.50
2019-01-26T04:43:29.300Z,117.60
2019-01-26T04:44:34.808Z,109.80
2019-01-26T04:45:40.325Z,108.50
2019-01-26T04:46:45.826Z,134.70
2019-01-26T04:47:51.328Z,154.40
2019-01-26T04:48:56.833Z,134.10
2019-01-26T04:50:02.341Z,138.00
2019-01-26T04:51:07.844Z,136.40
2019-01-26T04:52:13.364Z,160.00
2019-01-26T04:53:18.880Z,136.20
2019-01-26T04:54:24.368Z,141.80
2019-01-26T04:55:29.871Z,112.60
2019-01-26T04:56:35.378Z,110.30
2019-01-26T04:57:40.902Z,135.90
2019-01-26T04:58:46.398Z,130.30
2019-01-26T04:59:51.915Z,144.70
2019-01-26T05:00:57.419Z,126.20
2019-01-26T05:02:02.919Z,132.60
2019-01-26T05:03:08.418Z,124.20
2019-01-26T05:04:13.935Z,171.90
2019-01-26T05:05:19.445Z,178.40
2019-01-26T05:06:24.951Z,122.60
2019-01-26T05:07:30.454Z,134.70
2019-01-26T05:08:35.954Z,147.80
2019-01-26T05:09:41.463Z,119.20
2019-01-26T05:10:46.967Z,146.40
2019-01-26T05:11:52.480Z,156.20
2019-01-26T05:12:57.981Z,128.50
2019-01-26T05:14:03.488Z,173.40
2019-01-26T05:15:08.996Z,143.60
2019-01-26T05:16:14.501Z,185.90
2019-01-26T05:17:20.009Z,194.00
2019-01-26T05:18:25.523Z,131.10
2019-01-26T05:19:31.029Z,127.00
2019-01-26T05:20:36.531Z,120.40
2019-01-26T05:21:42.038Z,154.60
2019-01-26T05:22:47.542Z,124.60
2019-01-26T05:23:53.070Z,141.80
2019-01-26T05:24:58.561Z,114.00
2019-01-26T05:26:04.061Z,138.60
2019-01-26T05:27:09.573Z,113.20
2019-01-26T05:28:15.079Z,97.30
2019-01-26T05:29:20.589Z,108.80
2019-01-26T05:30:26.096Z,165.00
2019-01-26T05:31:31.625Z,142.20
2019-01-26T05:32:37.108Z,110.00
2019-01-26T05:33:42.616Z,124.10
2019-01-26T05:34:48.120Z,111.90
2019-01-26T05:35:53.635Z,114.40
2019-01-26T05:36:59.134Z,106.30
2019-01-26T05:38:04.643Z,164.50
2019-01-26T05:39:10.155Z,114.60
2019-01-26T05:40:15.659Z,132.00
2019-01-26T05:41:21.159Z,113.80
2019-01-26T05:42:26.671Z,106.30
2019-01-26T05:43:32.184Z,129.50
2019-01-26T05:44:37.685Z,127.30
2019-01-26T05:45:43.186Z,118.60
2019-01-26T05:46:48.709Z,119.10
2019-01-26T05:47:54.206Z,119.40
2019-01-26T05:48:59.711Z,139.70
2019-01-26T05:50:05.218Z,107.50
2019-01-26T05:51:10.728Z,139.50
2019-01-26T05:52:16.232Z,108.10
2019-01-26T05:53:21.738Z,129.00
2019-01-26T05:54:27.241Z,101.80
2019-01-26T05:55:32.751Z,126.00
2019-01-26T05:56:38.258Z,216.20
2019-01-26T05:57:43.776Z,118.60
2019-01-26T05:58:49.270Z,121.90
2019-01-26T05:59:54.779Z,139.50
2019-01-26T06:01:00.289Z,141.90
2019-01-26T06:02:05.800Z,147.30
2019-01-26T06:03:11.295Z,124.60
2019-01-26T06:04:16.812Z,159.50
2019-01-26T06:05:22.317Z,156.10
2019-01-26T06:06:27.823Z,107.10
2019-01-26T06:07:33.334Z,108.30
2019-01-26T06:08:38.842Z,111.60
2019-01-26T06:09:44.341Z,130.40
2019-01-26T06:10:49.847Z,127.90
2019-01-26T06:11:55.356Z,141.10
2019-01-26T06:13:00.861Z,121.40
2019-01-26T06:14:06.370Z,119.60
2019-01-26T06:15:11.880Z,173.70
2019-01-26T06:16:17.383Z,104.10
2019-01-26T06:17:22.901Z,145.30
2019-01-26T06:18:28.400Z,111.90
2019-01-26T06:19:33.912Z,135.30
2019-01-26T06:20:39.420Z,102.40
2019-01-26T06:21:44.921Z,111.50
2019-01-26T06:22:50.429Z,98.60
2019-01-26T06:23:55.952Z,147.10
2019-01-26T06:25:01.450Z,121.30
2019-01-26T06:26:06.967Z,119.60
2019-01-26T06:27:12.454Z,118.40
2019-01-26T06:28:17.958Z,137.70
2019-01-26T06:29:23.468Z,105.80
2019-01-26T06:30:28.986Z,159.70
2019-01-26T06:31:34.481Z,107.80
2019-01-26T06:32:39.997Z,110.80
2019-01-26T06:33:45.496Z,173.50
2019-01-26T06:34:51.007Z,116.50
2019-01-26T06:35:56.517Z,111.40
2019-01-26T06:37:02.027Z,110.30
2019-01-26T06:38:07.528Z,152.40
2019-01-26T06:39:13.034Z,131.00
2019-01-26T06:40:18.537Z,107.60
2019-01-26T06:41:24.091Z,128.20
2019-01-26T06:42:29.557Z,118.50
2019-01-26T06:43:35.057Z,115.90
2019-01-26T06:44:40.565Z,105.20
2019-01-26T06:45:46.076Z,112.30
2019-01-26T06:46:51.582Z,114.70
2019-01-26T06:48:02.131Z,116.20
2019-01-26T06:49:02.596Z,120.50
2019-01-26T06:50:08.107Z,122.30
2019-01-26T06:51:13.614Z,115.60
2019-01-26T06:52:19.117Z,126.30
2019-01-26T06:53:24.623Z,123.90
2019-01-26T06:54:30.131Z,137.10
2019-01-26T06:55:35.636Z,156.00
2019-01-26T06:56:41.148Z,130.80
2019-01-26T06:57:46.652Z,130.20
2019-01-26T06:58:52.168Z,117.80
2019-01-26T06:59:57.670Z,131.10
2019-01-26T07:01:03.186Z,141.70
2019-01-26T07:02:08.682Z,117.10
2019-01-26T07:03:14.189Z,114.20
2019-01-26T07:04:19.700Z,125.20
2019-01-26T07:05:25.203Z,138.60
2019-01-26T07:06:30.718Z,98.00
2019-01-26T07:07:36.222Z,123.20
2019-01-26T07:08:41.729Z,124.90
2019-01-26T07:09:47.232Z,224.80
2019-01-26T07:10:52.731Z,116.20
2019-01-26T07:11:58.241Z,123.80
2019-01-26T07:13:03.752Z,113.60
2019-01-26T07:14:09.258Z,117.90
2019-01-26T07:15:14.762Z,120.70
2019-01-26T07:16:20.275Z,119.40
2019-01-26T07:17:25.779Z,105.10
2019-01-26T07:18:31.291Z,124.50
2019-01-26T07:19:36.802Z,105.70
2019-01-26T07:20:42.300Z,104.20
2019-01-26T07:21:47.813Z,106.60
2019-01-26T07:22:53.318Z,107.40
2019-01-26T07:23:58.818Z,104.70
2019-01-26T07:25:04.329Z,104.70
2019-01-26T07:26:09.868Z,97.00
2019-01-26T07:27:15.347Z,106.80
2019-01-26T07:28:20.877Z,113.30
2019-01-26T07:29:26.357Z,161.30
2019-01-26T07:30:31.861Z,105.40
2019-01-26T07:31:37.381Z,101.20
2019-01-26T07:32:42.882Z,91.30
2019-01-26T07:33:48.398Z,118.90
2019-01-26T07:34:53.898Z,108.80
2019-01-26T07:35:59.402Z,106.50
2019-01-26T07:37:04.926Z,112.00
2019-01-26T07:38:13.710Z,101.40
2019-01-26T07:39:15.921Z,92.10
2019-01-26T07:40:21.432Z,98.90
2019-01-26T07:41:26.941Z,95.20
2019-01-26T07:42:32.457Z,101.60
2019-01-26T07:43:37.951Z,95.90
2019-01-26T07:44:43.459Z,94.80
2019-01-26T07:45:48.968Z,96.10
2019-01-26T07:46:54.494Z,95.40
2019-01-26T07:47:59.979Z,102.60
2019-01-26T07:49:05.492Z,90.70
2019-01-26T07:50:11.035Z,87.30
2019-01-26T07:51:16.501Z,82.50
2019-01-26T07:52:22.006Z,99.80
2019-01-26T07:53:27.523Z,99.70
2019-01-26T07:54:33.018Z,97.10
2019-01-26T07:55:38.527Z,87.10
2019-01-26T07:56:44.035Z,83.90
2019-01-26T07:57:49.544Z,84.30
2019-01-26T07:58:55.049Z,107.00
2019-01-26T08:00:00.626Z,97.60
2019-01-26T08:01:06.078Z,88.70
2019-01-26T08:02:11.581Z,81.00
2019-01-26T08:03:17.082Z,105.60
2019-01-26T08:04:22.594Z,90.20
2019-01-26T08:05:28.095Z,88.80
2019-01-26T08:06:33.611Z,95.90
2019-01-26T08:07:39.114Z,115.00
2019-01-26T08:08:44.623Z,96.10
2019-01-26T08:09:50.125Z,86.40
2019-01-26T08:10:55.631Z,82.00
2019-01-26T08:12:01.142Z,89.80
2019-01-26T08:13:06.642Z,95.90
2019-01-26T08:14:12.158Z,86.00
2019-01-26T08:15:17.665Z,98.70
2019-01-26T08:16:23.169Z,100.10
2019-01-26T08:17:28.680Z,86.60
2019-01-26T08:18:34.184Z,81.20
2019-01-26T08:19:40.104Z,78.30
2019-01-26T08:20:45.205Z,78.80
2019-01-26T08:21:50.719Z,80.00
2019-01-26T08:22:56.210Z,76.60
2019-01-26T08:24:01.716Z,77.40
2019-01-26T08:25:07.227Z,86.60
2019-01-26T08:26:12.736Z,69.30
2019-01-26T08:27:18.254Z,71.10
2019-01-26T08:28:23.744Z,92.80
2019-01-26T08:29:29.257Z,86.60
2019-01-26T08:30:34.765Z,85.60
2019-01-26T08:31:40.270Z,80.30
2019-01-26T08:32:45.779Z,82.50
2019-01-26T08:33:51.285Z,81.60
2019-01-26T08:34:56.792Z,82.30
2019-01-26T08:36:02.311Z,75.40
2019-01-26T08:37:07.813Z,81.30
2019-01-26T08:38:13.344Z,78.30
2019-01-26T08:39:18.839Z,89.00
2019-01-26T08:40:24.326Z,83.60
2019-01-26T08:41:29.839Z,102.70
2019-01-26T08:42:35.339Z,85.90
2019-01-26T08:43:40.860Z,92.80
2019-01-26T08:44:46.359Z,77.00
2019-01-26T08:45:51.866Z,80.80
2019-01-26T08:46:57.376Z,73.00
2019-01-26T08:48:02.885Z,64.10
2019-01-26T08:49:08.826Z,61.70
2019-01-26T08:50:13.901Z,62.60
2019-01-26T08:51:19.399Z,64.80
2019-01-26T08:52:24.915Z,64.20
2019-01-26T08:53:30.422Z,54.20
2019-01-26T08:54:35.923Z,58.70
2019-01-26T08:55:41.428Z,51.00
2019-01-26T08:56:46.939Z,43.20
2019-01-26T08:57:52.449Z,49.20
2019-01-26T08:58:57.962Z,50.20
2019-01-26T09:00:03.466Z,41.50
2019-01-26T09:01:08.971Z,42.20
2019-01-26T09:02:14.490Z,41.50
2019-01-26T09:03:19.987Z,38.60
2019-01-26T09:04:25.503Z,40.80
2019-01-26T09:05:31.004Z,42.70
2019-01-26T09:06:36.509Z,43.80
2019-01-26T09:07:42.014Z,48.40
2019-01-26T09:08:47.522Z,43.80
2019-01-26T09:09:53.035Z,103.30
2019-01-26T09:10:58.539Z,68.00
2019-01-26T09:12:04.048Z,51.20
2019-01-26T09:13:09.552Z,41.90
2019-01-26T09:14:15.063Z,43.30
2019-01-26T09:15:20.566Z,47.10
2019-01-26T09:16:26.073Z,43.30
2019-01-26T09:17:31.581Z,40.30
2019-01-26T09:18:39.001Z,41.30
2019-01-26T09:19:42.601Z,44.30
2019-01-26T09:20:48.106Z,35.30
2019-01-26T09:21:53.617Z,37.00
2019-01-26T09:22:59.117Z,38.30
2019-01-26T09:24:04.627Z,37.50
2019-01-26T09:25:10.133Z,34.70
2019-01-26T09:26:15.646Z,33.50
2019-01-26T09:27:21.153Z,40.50
2019-01-26T09:28:26.662Z,37.90
2019-01-26T09:29:32.186Z,36.90
2019-01-26T09:30:37.689Z,40.00
2019-01-26T09:31:43.192Z,43.60
2019-01-26T09:32:48.694Z,43.60
2019-01-26T09:33:54.200Z,44.30
2019-01-26T09:34:59.704Z,51.60
2019-01-26T09:36:05.209Z,56.90
2019-01-26T09:37:10.726Z,55.50
2019-01-26T09:38:16.230Z,65.70
2019-01-26T09:39:21.746Z,67.70
2019-01-26T09:40:27.239Z,80.40
2019-01-26T09:41:32.755Z,60.00
2019-01-26T09:42:38.255Z,69.10
2019-01-26T09:43:43.764Z,73.90
2019-01-26T09:44:49.277Z,74.30
2019-01-26T09:45:54.789Z,80.20
2019-01-26T09:47:00.668Z,86.00
2019-01-26T09:48:05.806Z,72.90
2019-01-26T09:49:11.302Z,69.60
2019-01-26T09:50:16.820Z,71.70
2019-01-26T09:51:22.316Z,75.40
2019-01-26T09:52:29.303Z,69.80
2019-01-26T09:53:33.379Z,66.00
2019-01-26T09:54:38.859Z,72.30
2019-01-26T09:55:44.356Z,65.20
2019-01-26T09:56:49.855Z,65.10
2019-01-26T09:57:55.387Z,84.60
2019-01-26T09:59:00.866Z,78.50
2019-01-26T10:00:06.383Z,68.80
2019-01-26T10:01:11.891Z,66.00
2019-01-26T10:02:17.396Z,69.20
2019-01-26T10:03:22.901Z,66.50
2019-01-26T10:04:28.419Z,67.30
2019-01-26T10:05:33.921Z,76.50
2019-01-26T10:06:39.427Z,77.50
2019-01-26T10:07:44.947Z,75.50
2019-01-26T10:08:50.440Z,74.70
2019-01-26T10:09:55.947Z,75.20
2019-01-26T10:11:01.481Z,68.90
2019-01-26T10:12:06.968Z,63.60
2019-01-26T10:13:12.475Z,71.30
2019-01-26T10:14:17.974Z,86.70
2019-01-26T10:15:23.490Z,69.80
2019-01-26T10:16:28.996Z,69.70
2019-01-26T10:17:34.507Z,59.80
2019-01-26T10:18:40.017Z,67.10
2019-01-26T10:19:45.511Z,64.50
2019-01-26T10:20:51.043Z,58.10
2019-01-26T10:21:56.532Z,67.80
2019-01-26T10:23:02.033Z,62.80
2019-01-26T10:24:07.544Z,57.90
2019-01-26T10:25:13.059Z,65.10
2019-01-26T10:26:18.554Z,62.10
2019-01-26T10:27:24.073Z,60.60
2019-01-26T10:28:29.570Z,53.60
2019-01-26T10:29:35.110Z,74.80
2019-01-26T10:30:40.588Z,62.00
2019-01-26T10:31:46.099Z,59.20
2019-01-26T10:32:51.604Z,58.00
2019-01-26T10:33:57.119Z,61.00
2019-01-26T10:35:02.630Z,64.50
2019-01-26T10:36:08.124Z,59.60
2019-01-26T10:37:13.654Z,55.20
2019-01-26T10:38:19.146Z,67.30
2019-01-26T10:39:24.653Z,57.50
2019-01-26T10:40:30.168Z,51.60
2019-01-26T10:41:35.668Z,59.10
2019-01-26T10:42:41.173Z,81.20
2019-01-26T10:43:46.685Z,61.60
2019-01-26T10:44:52.188Z,63.10
2019-01-26T10:45:57.695Z,52.00
2019-01-26T10:47:03.203Z,67.30
2019-01-26T10:48:08.712Z,56.70
2019-01-26T10:49:14.216Z,60.20
2019-01-26T10:50:19.736Z,59.70
2019-01-26T10:51:25.248Z,58.00
2019-01-26T10:52:30.750Z,69.50
2019-01-26T10:53:36.245Z,61.50
2019-01-26T10:54:41.760Z,60.10
2019-01-26T10:55:47.265Z,53.50
2019-01-26T10:56:52.767Z,54.60
2019-01-26T10:57:58.286Z,56.20
2019-01-26T10:59:03.785Z,66.60
2019-01-26T11:00:09.293Z,60.40
2019-01-26T11:01:14.801Z,54.50
2019-01-26T11:02:20.318Z,71.00
2019-01-26T11:03:25.818Z,67.50
2019-01-26T11:04:31.333Z,65.50
2019-01-26T11:05:36.837Z,58.30
2019-01-26T11:06:42.339Z,58.70
2019-01-26T11:07:47.847Z,56.60
2019-01-26T11:08:53.352Z,57.80
2019-01-26T11:09:58.859Z,65.90
2019-01-26T11:11:04.377Z,65.60
2019-01-26T11:12:09.878Z,58.10
2019-01-26T11:13:15.396Z,66.40
2019-01-26T11:14:20.903Z,56.20
2019-01-26T11:15:26.405Z,57.60
2019-01-26T11:16:31.923Z,67.90
2019-01-26T11:17:37.426Z,61.40
2019-01-26T11:18:42.924Z,50.70
2019-01-26T11:19:48.437Z,49.10
2019-01-26T11:20:53.953Z,47.20
2019-01-26T11:21:59.450Z,47.40
2019-01-26T11:23:04.952Z,49.00
2019-01-26T11:24:10.467Z,51.50
2019-01-26T11:25:15.987Z,51.40
2019-01-26T11:26:21.488Z,48.80
2019-01-26T11:27:26.996Z,61.90
2019-01-26T11:28:32.497Z,55.50
2019-01-26T11:29:38.012Z,53.10
2019-01-26T11:30:43.513Z,52.50
2019-01-26T11:31:49.015Z,47.80
2019-01-26T11:32:54.524Z,50.50
2019-01-26T11:34:00.036Z,49.90
2019-01-26T11:35:05.543Z,48.40
2019-01-26T11:36:11.049Z,46.20
2019-01-26T11:37:16.566Z,50.20
2019-01-26T11:38:22.096Z,53.70
2019-01-26T11:39:27.577Z,56.50
2019-01-26T11:40:33.076Z,53.70
2019-01-26T11:41:38.596Z,50.40
2019-01-26T11:42:44.096Z,52.00
2019-01-26T11:43:49.613Z,51.30
2019-01-26T11:44:55.112Z,49.50
2019-01-26T11:46:00.622Z,51.20
2019-01-26T11:47:06.137Z,55.50
2019-01-26T11:48:11.635Z,53.80
2019-01-26T11:49:17.137Z,60.90
2019-01-26T11:50:22.652Z,50.80
2019-01-26T11:51:28.149Z,56.40
2019-01-26T11:52:33.657Z,51.40
2019-01-26T11:53:39.167Z,52.80
2019-01-26T11:54:44.680Z,51.70
2019-01-26T11:55:50.184Z,57.80
2019-01-26T11:56:55.679Z,52.30
2019-01-26T11:58:01.201Z,47.90
2019-01-26T11:59:06.717Z,47.50
2019-01-26T12:00:12.243Z,50.00
2019-01-26T12:01:17.731Z,54.20
2019-01-26T12:02:29.727Z,51.00
2019-01-26T12:03:28.743Z,50.20
2019-01-26T12:04:34.252Z,45.10
2019-01-26T12:05:39.748Z,46.70
2019-01-26T12:06:45.256Z,45.30
2019-01-26T12:07:50.783Z,47.30
2019-01-26T12:08:56.289Z,41.50
2019-01-26T12:10:01.768Z,39.10
2019-01-26T12:11:07.291Z,40.90
2019-01-26T12:12:12.820Z,41.10
2019-01-26T12:13:18.312Z,35.80
2019-01-26T12:14:23.823Z,36.60
2019-01-26T12:15:29.332Z,35.70
2019-01-26T12:16:34.829Z,36.80
2019-01-26T12:17:40.345Z,37.10
2019-01-26T12:18:45.850Z,35.70
2019-01-26T12:19:51.352Z,34.70
2019-01-26T12:20:56.866Z,35.90
2019-01-26T12:22:02.372Z,33.70
2019-01-26T12:23:07.886Z,35.20
2019-01-26T12:24:13.406Z,34.80
2019-01-26T12:25:18.887Z,36.00
2019-01-26T12:26:24.401Z,38.00
2019-01-26T12:27:29.928Z,40.60
2019-01-26T12:28:35.417Z,36.70
2019-01-26T12:29:40.977Z,37.40
2019-01-26T12:30:46.426Z,37.30
2019-01-26T12:31:51.956Z,37.00
2019-01-26T12:32:57.440Z,39.00
2019-01-26T12:34:02.973Z,36.10
2019-01-26T12:35:08.474Z,36.00
2019-01-26T12:36:13.989Z,37.50
2019-01-26T12:37:19.488Z,39.40
2019-01-26T12:38:24.990Z,37.30
2019-01-26T12:39:30.510Z,32.30
2019-01-26T12:40:36.009Z,33.90
2019-01-26T12:41:41.517Z,33.20
2019-01-26T12:42:47.024Z,33.80
2019-01-26T12:43:52.526Z,31.90
2019-01-26T12:44:58.025Z,30.90
2019-01-26T12:46:03.561Z,29.70
2019-01-26T12:47:09.068Z,30.90
2019-01-26T12:48:14.578Z,28.60
2019-01-26T12:49:20.067Z,28.40
2019-01-26T12:50:25.595Z,31.30
2019-01-26T12:51:31.090Z,29.70
2019-01-26T12:52:36.608Z,30.10
2019-01-26T12:53:42.093Z,29.20
2019-01-26T12:54:47.622Z,29.50
2019-01-26T12:55:53.139Z,29.30
2019-01-26T12:56:58.631Z,27.20
2019-01-26T12:58:04.148Z,29.40
2019-01-26T12:59:09.643Z,30.30
2019-01-26T13:00:15.152Z,26.60
2019-01-26T13:01:20.664Z,27.70
2019-01-26T13:02:26.168Z,27.80
2019-01-26T13:03:31.697Z,28.70
2019-01-26T13:04:37.192Z,24.70
2019-01-26T13:05:42.690Z,26.90
2019-01-26T13:06:48.199Z,26.20
2019-01-26T13:07:53.708Z,25.80
2019-01-26T13:08:59.224Z,25.20
2019-01-26T13:10:04.739Z,25.30
2019-01-26T13:11:10.236Z,25.90
2019-01-26T13:12:15.745Z,23.70
2019-01-26T13:13:21.253Z,26.10
2019-01-26T13:14:26.758Z,24.90
2019-01-26T13:15:32.265Z,27.00
2019-01-26T13:16:38.060Z,27.10
2019-01-26T13:17:43.290Z,23.30
2019-01-26T13:18:48.803Z,24.60
2019-01-26T13:19:54.312Z,23.20
2019-01-26T13:20:59.815Z,24.20
2019-01-26T13:22:05.324Z,21.80
2019-01-26T13:23:10.820Z,22.50
2019-01-26T13:24:16.346Z,23.00
2019-01-26T13:25:21.845Z,22.50
2019-01-26T13:26:27.368Z,20.60
2019-01-26T13:27:32.867Z,23.50
2019-01-26T13:28:38.393Z,22.40
2019-01-26T13:29:44.007Z,22.90
2019-01-26T13:30:49.611Z,19.80
2019-01-26T13:31:55.011Z,20.80
2019-01-26T13:33:00.480Z,22.00
2019-01-26T13:34:05.945Z,20.40
2019-01-26T13:35:11.668Z,24.00
2019-01-26T13:36:17.141Z,22.80
2019-01-26T13:37:22.541Z,21.70
2019-01-26T13:38:28.122Z,20.40
2019-01-26T13:39:33.623Z,21.60
2019-01-26T13:40:39.119Z,19.80
2019-01-26T13:41:44.638Z,21.20
2019-01-26T13:42:50.009Z,18.30
2019-01-26T13:43:55.794Z,18.70
2019-01-26T13:45:01.226Z,19.70
2019-01-26T13:46:06.660Z,20.40
2019-01-26T13:47:12.061Z,19.50
2019-01-26T13:48:17.629Z,20.50
2019-01-26T13:49:23.356Z,17.10
2019-01-26T13:50:28.559Z,21.60
2019-01-26T13:51:34.138Z,17.30
2019-01-26T13:52:39.572Z,21.20
2019-01-26T13:53:45.058Z,17.40
2019-01-26T13:54:50.626Z,18.20
2019-01-26T13:55:56.077Z,18.70